Details From TNCM - St Maarten - Princess Juliana Intl
To GOOY - Dakar Leopold Sedar Senghor Intl
Flight Number -
Tags Standard
Created
Modified
Stats Distance 2,622 nm / 4,857 km
Max Altitude 0 ft / 0 m
Waypoints 8
Social Downloads 5
Likes 0
Share VATSIM

Download

Looking for another format? Having issues loading an existing format? Contact us
Advertisement - Login to hide

Notes

Dep rwy 09 - Arr rwy 36 (after waypoint fix INIRO ak for ILS approach

Route

+18.042_-063.114 LAMKN EGIBO PAKER KENOX UNOSU BOTNO INIRO

ID Type Via Altitude Latitude Longitude Leg Dist Tot Dist Heading (true) Name
O +18.042_-063.114 LATLON - 0 ft / 0 m 18.04200˚ -63.11400˚ - 0 nm - -
LAMKN FIX - 0 ft / 0 m 18.00000˚ -61.96600˚ 65 nm 65 nm 92° / 92° -
EGIBO FIX - 0 ft / 0 m 17.00000˚ -50.00000˚ 687 nm 753 nm 93° / 97° -
PAKER FIX - 0 ft / 0 m 15.33333˚ -40.00000˚ 585 nm 1338 nm 98° / 101° -
KENOX FIX - 0 ft / 0 m 14.81000˚ -28.49167˚ 668 nm 2006 nm 91° / 94° -
UNOSU FIX - 0 ft / 0 m 14.48000˚ -24.05472˚ 258 nm 2265 nm 94° / 95° -
BOTNO FIX - 0 ft / 0 m 13.50000˚ -23.24167˚ 75 nm 2341 nm 141° / 141° -
O INIRO FIX - 0 ft / 0 m 13.33194˚ -18.42778˚ 281 nm 2622 nm 91° / 93° -

Altitude Profile

Advertisement - Login to hide

Weather


0- 5 10 15 20 25 30 35+ Temperature / ° C

Clouds and Precipitation
Forecast for 2017-12-12 12:00 UTC. Updated an hour ago

Ground ~20,000 ft ~40,000 ft Winds

TNCM

Details ICAO TNCM (SXM)
Name St Maarten - Princess Juliana Intl
Region Caribbean Netherlands, Aruba, Curaçao, Sint Maarten
Timezone Unknown (UTC+0.0)
Stats Elevation 12 ft / 4 m (AMSL)
Location 18.040889° -63.108974°
Runways 1
Magnetic Variation 14.325° W

METAR

TNCM 121000Z 08005KT 9999 FEW018 24/21 Q1013 A2992 NOSIG

Decode

TAF

TNCM 120535Z 1206/1306 VRB05KT P6SM SCT020 FM121430 14010KT P6SM SCT022

Decode

Departure Runways

ID Width Length Bearing (true) Bearing (mag) Surface Threshold Offset Overrun Length
10 148 ft / 45 m 7,464 ft / 2,275 m 81.43° 95.75° Asphalt 0 ft / 0 m 151 ft / 46 m
28 148 ft / 45 m 7,464 ft / 2,275 m 261.44° 275.76° Asphalt 397 ft / 121 m 0 ft / 0 m

GOOY

Details ICAO GOOY (DKR)
Name Dakar Leopold Sedar Senghor Intl
Region Senegal
Timezone Africa/Dakar (UTC+0.0)
Stats Elevation 85 ft / 26 m (AMSL)
Location 14.739711° -17.490226°
Runways 2
Magnetic Variation 7.348° W

METAR

GOOY 121000Z 36013KT 6000 NSC 25/15 Q1015

Decode

TAF

TAF GOOY 120530Z 1206/1312 02010KT 6000 NSC= TAF GBYD 120530Z 1206/1312 02008KT 8000 NSC

Decode

Destination Runways

ID Width Length Bearing (true) Bearing (mag) Surface Threshold Offset Overrun Length
03 98 ft / 30 m 4,921 ft / 1,500 m 22.31° 29.66° Asphalt 0 ft / 0 m 98 ft / 30 m
18 148 ft / 45 m 11,511 ft / 3,509 m 172.57° 179.92° Asphalt 525 ft / 160 m 197 ft / 60 m
21 98 ft / 30 m 4,921 ft / 1,500 m 202.31° 209.66° Asphalt 0 ft / 0 m 1,590 ft / 485 m
36 148 ft / 45 m 11,511 ft / 3,509 m 352.57° 359.92° Asphalt 0 ft / 0 m 197 ft / 60 m

Approach Navaids

Runway Type Ident Frequency Range Bearing (true) Bearing (mag) Slope Elevation
36 Localiser YF 110.30 MHz 18 nm / 33 km 352.33° 359.67° - 65 ft / 20 m (AMSL)
36 Glidescope YF 110.30 MHz 10 nm / 19 km 352.57° 359.92° 3.01° 73 ft / 22 m (AMSL)
36 DME YF 110.30 MHz 18 nm / 33 km - - - 73 ft / 22 m (AMSL)

Popular Alternatives